Time;durP1;ratioP1;P1;durP2;ratioP2;P2;SDS_P1;SDS_P2;PMS_P1;PMS_P2;Temp;Humidity;BMP_temperature;BMP_pressure;BME280_temperature;BME280_humidity;BME280_pressure;Samples;Min_cycle;Max_cycle;Signal;HPM_P1;HPM_P2
2022/03/05 00:01:06;;;;;;;2.90;2.00;;;-1.40;98.00;;;;;;4989456;28;20251;-77
2022/03/05 00:03:32;;;;;;;3.33;1.67;;;-1.40;98.00;;;;;;4992184;28;20252;-77
2022/03/05 00:05:59;;;;;;;3.67;1.93;;;-1.40;98.10;;;;;;5010130;28;20242;-77
2022/03/05 00:08:26;;;;;;;4.67;2.30;;;-1.40;98.10;;;;;;5001159;28;20242;-78
2022/03/05 00:10:52;;;;;;;4.67;2.30;;;-1.40;98.10;;;;;;5009490;28;20238;-76
2022/03/05 00:13:20;;;;;;;3.93;2.00;;;-1.50;98.00;;;;;;5002599;28;20247;-76
2022/03/05 00:15:47;;;;;;;5.50;2.07;;;-1.50;98.10;;;;;;4998065;28;20230;-76
2022/03/05 00:18:14;;;;;;;3.63;2.00;;;-1.50;98.10;;;;;;5003196;28;20764;-76
2022/03/05 00:20:42;;;;;;;5.03;2.30;;;-1.50;98.20;;;;;;5002250;28;20258;-76
2022/03/05 00:23:08;;;;;;;5.73;2.40;;;-1.60;98.20;;;;;;4999061;28;20313;-76
2022/03/05 00:25:35;;;;;;;7.10;2.40;;;-1.60;98.20;;;;;;4980317;28;20232;-76
2022/03/05 00:28:02;;;;;;;5.93;2.20;;;-1.60;98.20;;;;;;5002376;28;20229;-76
2022/03/05 00:30:30;;;;;;;6.00;2.30;;;-1.60;98.30;;;;;;4980878;28;20237;-76
2022/03/05 00:32:57;;;;;;;3.10;2.20;;;-1.60;98.40;;;;;;4978836;28;20237;-76
2022/03/05 00:35:24;;;;;;;4.73;2.10;;;-1.70;98.50;;;;;;5006382;28;20234;-76
2022/03/05 00:37:52;;;;;;;7.73;2.70;;;-1.70;98.50;;;;;;4992498;28;20235;-76
2022/03/05 00:40:18;;;;;;;3.80;2.20;;;-1.70;98.40;;;;;;4999113;28;20572;-76
2022/03/05 00:42:45;;;;;;;6.20;2.10;;;-1.70;98.40;;;;;;4977291;28;20229;-76
2022/03/05 00:45:12;;;;;;;6.47;2.20;;;-1.70;98.40;;;;;;5001862;28;20262;-76
2022/03/05 00:47:40;;;;;;;5.93;2.27;;;-1.70;98.70;;;;;;4993238;28;20225;-76
2022/03/05 00:50:10;;;;;;;4.23;2.30;;;-1.80;98.30;;;;;;4997351;28;20228;-76
2022/03/05 00:52:37;;;;;;;4.80;2.30;;;-1.80;98.40;;;;;;4993009;28;20263;-76
2022/03/05 00:55:05;;;;;;;4.60;2.20;;;-1.80;98.30;;;;;;4996325;28;20239;-76
2022/03/05 00:57:32;;;;;;;4.70;1.93;;;-1.80;98.40;;;;;;5023111;28;20260;-76
2022/03/05 00:59:59;;;;;;;4.30;1.97;;;-1.80;98.40;;;;;;5027724;28;20221;-76
2022/03/05 01:02:25;;;;;;;3.67;2.00;;;-1.80;98.50;;;;;;5020862;28;20334;-76
2022/03/05 01:04:53;;;;;;;4.33;1.83;;;-1.80;98.50;;;;;;5021917;28;20224;-76
2022/03/05 01:07:20;;;;;;;4.93;1.90;;;-1.80;98.50;;;;;;5028909;28;20229;-76
2022/03/05 01:09:47;;;;;;;3.00;1.77;;;-1.80;98.50;;;;;;5021858;28;20255;-76
2022/03/05 01:12:13;;;;;;;4.37;1.80;;;-1.90;98.50;;;;;;5013717;28;20232;-76
2022/03/05 01:14:40;;;;;;;5.30;2.00;;;-1.90;98.80;;;;;;5019784;28;20234;-76
2022/03/05 01:17:07;;;;;;;3.80;1.70;;;-1.90;98.50;;;;;;5042247;28;20966;-77
2022/03/05 01:19:34;;;;;;;4.20;2.37;;;-1.90;98.50;;;;;;5012868;28;20316;-77
2022/03/05 01:22:02;;;;;;;5.70;1.77;;;-1.90;98.50;;;;;;5027200;28;20264;-76
2022/03/05 01:24:29;;;;;;;4.67;2.17;;;-1.90;98.60;;;;;;5015773;28;20322;-76
2022/03/05 01:26:55;;;;;;;4.03;1.73;;;-1.90;98.50;;;;;;5017567;28;20227;-76
2022/03/05 01:29:22;;;;;;;4.07;1.90;;;-1.90;98.60;;;;;;5021817;28;20838;-77
2022/03/05 01:31:49;;;;;;;5.47;1.90;;;-1.90;98.50;;;;;;5019142;28;20230;-76
2022/03/05 01:34:16;;;;;;;3.30;1.70;;;-1.80;98.50;;;;;;5014196;28;20218;-76
2022/03/05 01:36:42;;;;;;;4.10;2.10;;;-1.90;98.50;;;;;;5024415;28;20247;-76
2022/03/05 01:39:10;;;;;;;3.43;1.83;;;-1.90;98.50;;;;;;5024935;28;20238;-76
2022/03/05 01:41:37;;;;;;;6.57;1.90;;;-1.90;98.50;;;;;;5018867;28;20837;-76
2022/03/05 01:44:05;;;;;;;3.70;1.80;;;-1.90;98.50;;;;;;5017288;28;20228;-77
2022/03/05 01:46:34;;;;;;;5.43;1.90;;;-1.90;98.50;;;;;;5021257;28;20225;-76
2022/03/05 01:49:01;;;;;;;4.30;2.07;;;-1.90;98.50;;;;;;5012270;28;20230;-77
2022/03/05 01:51:28;;;;;;;5.27;2.37;;;-1.90;98.50;;;;;;5017417;28;20231;-76
2022/03/05 01:53:55;;;;;;;4.73;1.70;;;-1.90;98.50;;;;;;5015726;28;20556;-76
2022/03/05 01:56:23;;;;;;;4.83;1.90;;;-1.90;98.50;;;;;;5028380;28;20230;-76
2022/03/05 01:58:50;;;;;;;4.80;2.13;;;-1.90;98.40;;;;;;5024924;28;20229;-76
2022/03/05 02:01:17;;;;;;;3.63;1.50;;;-1.90;98.30;;;;;;5023088;28;20232;-76
2022/03/05 02:03:43;;;;;;;3.33;1.90;;;-1.90;98.40;;;;;;5033259;28;20226;-77
2022/03/05 02:06:11;;;;;;;3.97;1.90;;;-1.90;98.50;;;;;;5023980;28;20229;-76
2022/03/05 02:08:38;;;;;;;6.63;1.70;;;-1.90;98.50;;;;;;5024245;28;20229;-76
2022/03/05 02:11:05;;;;;;;3.87;1.80;;;-1.90;98.50;;;;;;5022492;28;20316;-77
2022/03/05 02:13:34;;;;;;;5.80;1.70;;;-1.90;98.40;;;;;;5023386;28;20965;-76
2022/03/05 02:16:00;;;;;;;5.00;1.70;;;-2.00;98.50;;;;;;5018439;28;20229;-76
2022/03/05 02:18:27;;;;;;;4.03;1.90;;;-2.00;98.50;;;;;;5017585;28;20230;-76
2022/03/05 02:20:56;;;;;;;3.97;1.83;;;-2.00;98.60;;;;;;5022203;28;20236;-76
2022/03/05 02:23:23;;;;;;;3.80;1.67;;;-2.00;98.50;;;;;;5011148;28;20226;-77
2022/03/05 02:25:54;;;;;;;4.63;1.90;;;-2.00;98.70;;;;;;5023920;28;20230;-76
2022/03/05 02:28:21;;;;;;;5.83;2.00;;;-2.00;98.50;;;;;;5025076;28;20221;-76
2022/03/05 02:30:48;;;;;;;4.33;2.27;;;-2.10;98.50;;;;;;5027958;28;21102;-77
2022/03/05 02:33:15;;;;;;;3.27;1.83;;;-2.10;98.50;;;;;;5022168;28;20235;-76
2022/03/05 02:35:44;;;;;;;3.53;1.60;;;-2.10;98.60;;;;;;5022183;28;20225;-76
2022/03/05 02:38:13;;;;;;;5.30;1.70;;;-2.10;98.60;;;;;;5029541;28;20226;-77
2022/03/05 02:40:40;;;;;;;2.93;1.60;;;-2.20;98.70;;;;;;5026003;28;20231;-76
2022/03/05 02:43:08;;;;;;;4.17;1.70;;;-2.20;98.60;;;;;;5022888;28;20235;-77
2022/03/05 02:45:34;;;;;;;4.10;1.70;;;-2.20;98.50;;;;;;5026403;28;20258;-76
2022/03/05 02:48:02;;;;;;;2.27;1.33;;;-2.20;98.70;;;;;;5025144;28;20232;-77
2022/03/05 02:50:30;;;;;;;5.23;1.90;;;-2.20;98.60;;;;;;5026281;28;20265;-76
2022/03/05 02:52:56;;;;;;;6.90;2.30;;;-2.20;98.60;;;;;;5020645;28;20730;-76
2022/03/05 02:55:24;;;;;;;4.30;1.70;;;-2.30;98.70;;;;;;5033693;28;20237;-76
2022/03/05 02:57:51;;;;;;;5.20;2.10;;;-2.30;98.70;;;;;;5028007;28;20222;-77
2022/03/05 03:00:18;;;;;;;3.90;1.43;;;-2.30;98.70;;;;;;4999649;28;20598;-76
2022/03/05 03:02:45;;;;;;;5.67;1.97;;;-2.30;98.80;;;;;;5000827;28;20949;-76
2022/03/05 03:05:12;;;;;;;6.73;1.80;;;-2.30;98.80;;;;;;5002437;28;20235;-76
2022/03/05 03:07:39;;;;;;;5.70;1.80;;;-2.40;98.90;;;;;;5013246;28;20675;-76
2022/03/05 03:10:08;;;;;;;3.13;1.90;;;-2.40;98.80;;;;;;5019571;28;20230;-77
2022/03/05 03:12:36;;;;;;;4.70;1.80;;;-2.40;98.80;;;;;;4988534;28;20306;-77
2022/03/05 03:15:04;;;;;;;5.17;1.80;;;-2.40;98.90;;;;;;5004674;28;20320;-76
2022/03/05 03:17:31;;;;;;;3.83;2.00;;;-2.40;99.10;;;;;;5004014;28;21038;-76
2022/03/05 03:19:57;;;;;;;3.57;1.97;;;-2.40;99.50;;;;;;5001272;28;20228;-76
2022/03/05 03:22:24;;;;;;;4.03;1.73;;;-2.40;99.20;;;;;;4995276;28;20251;-76
2022/03/05 03:24:51;;;;;;;3.70;1.80;;;-2.40;99.20;;;;;;5002565;28;20230;-76
2022/03/05 03:27:18;;;;;;;3.90;1.80;;;-2.40;99.10;;;;;;5001305;28;20723;-76
2022/03/05 03:29:46;;;;;;;4.63;1.80;;;-2.40;99.20;;;;;;4990870;28;20231;-77
2022/03/05 03:32:12;;;;;;;5.27;1.83;;;-2.40;99.30;;;;;;5008351;28;20251;-76
2022/03/05 03:34:39;;;;;;;4.93;1.90;;;-2.40;99.30;;;;;;5013772;28;20258;-76
2022/03/05 03:37:06;;;;;;;6.67;2.03;;;-2.40;99.30;;;;;;5009249;28;20235;-76
2022/03/05 03:39:33;;;;;;;5.40;1.90;;;-2.40;99.30;;;;;;4997996;28;20226;-76
2022/03/05 03:41:59;;;;;;;4.77;2.00;;;-2.40;99.50;;;;;;5002164;28;20230;-77
2022/03/05 03:44:26;;;;;;;7.43;2.00;;;-2.40;99.60;;;;;;5002782;28;20235;-78
2022/03/05 03:46:54;;;;;;;4.97;1.73;;;-2.40;99.70;;;;;;5003062;28;20231;-76
2022/03/05 03:49:21;;;;;;;6.20;2.03;;;-2.40;99.80;;;;;;4994463;28;20233;-76
2022/03/05 03:51:48;;;;;;;4.40;2.13;;;-2.40;99.80;;;;;;5002555;28;20939;-77
2022/03/05 03:54:15;;;;;;;4.70;1.80;;;-2.40;99.70;;;;;;5004332;28;20235;-77
2022/03/05 03:56:42;;;;;;;5.00;1.93;;;-2.50;99.70;;;;;;5013021;28;20691;-77
2022/03/05 03:59:09;;;;;;;6.73;2.20;;;-2.50;99.70;;;;;;5004579;28;20727;-77
2022/03/05 04:01:36;;;;;;;6.80;2.33;;;-2.50;99.70;;;;;;4995623;28;20258;-77
2022/03/05 04:04:04;;;;;;;4.40;1.93;;;-2.50;99.70;;;;;;5011029;28;20251;-77
2022/03/05 04:08:41;;;;;;;4.93;2.00;;;-2.50;99.90;;;;;;4983972;28;20254;-77
2022/03/05 04:09:16;;;;;;;4.43;1.83;;;-2.50;99.90;;;;;;5005779;28;20242;-77
2022/03/05 04:11:43;;;;;;;5.70;2.00;;;-2.50;99.90;;;;;;4988249;28;20224;-75
2022/03/05 04:14:11;;;;;;;4.93;2.23;;;-2.50;99.90;;;;;;4999908;28;20227;-76
2022/03/05 04:16:37;;;;;;;4.07;2.20;;;-2.60;99.90;;;;;;4983458;28;20226;-76
2022/03/05 04:19:06;;;;;;;5.30;2.17;;;-2.60;99.90;;;;;;4998766;28;20236;-76
2022/03/05 04:21:33;;;;;;;3.73;2.30;;;-2.60;99.90;;;;;;5000736;28;20256;-75
2022/03/05 04:23:59;;;;;;;5.73;2.57;;;-2.60;99.90;;;;;;5001880;28;20229;-76
2022/03/05 04:26:26;;;;;;;6.20;2.63;;;-2.60;99.90;;;;;;5002420;28;20231;-76
2022/03/05 04:28:53;;;;;;;4.63;2.17;;;-2.60;99.90;;;;;;4999898;28;20226;-76
2022/03/05 04:31:19;;;;;;;5.77;2.07;;;-2.60;99.90;;;;;;4996677;28;20226;-76
2022/03/05 04:33:46;;;;;;;6.40;2.20;;;-2.70;99.90;;;;;;4981997;28;20790;-76
2022/03/05 04:36:14;;;;;;;7.07;2.43;;;-2.70;99.90;;;;;;4992077;28;20240;-79
2022/03/05 04:38:41;;;;;;;4.87;2.13;;;-2.70;99.90;;;;;;5003155;28;20316;-79
2022/03/05 04:41:07;;;;;;;7.73;2.63;;;-2.70;99.90;;;;;;5004192;28;20238;-79
2022/03/05 04:43:34;;;;;;;4.23;2.27;;;-2.80;99.90;;;;;;5000996;28;20976;-79
2022/03/05 04:46:01;;;;;;;5.80;1.87;;;-2.80;99.90;;;;;;5001410;28;20601;-79
2022/03/05 04:48:28;;;;;;;4.80;2.50;;;-2.80;99.90;;;;;;5005477;28;20235;-79
2022/03/05 04:50:54;;;;;;;4.97;2.30;;;-2.80;99.90;;;;;;5000716;28;20229;-78
2022/03/05 04:53:22;;;;;;;4.23;2.40;;;-2.90;99.90;;;;;;5011734;28;20253;-78
2022/03/05 04:55:49;;;;;;;5.77;2.60;;;-2.90;99.90;;;;;;5024099;28;20229;-79
2022/03/05 04:58:16;;;;;;;3.97;2.10;;;-2.90;99.90;;;;;;5013213;28;20236;-79
2022/03/05 05:00:43;;;;;;;7.13;2.30;;;-2.90;99.90;;;;;;5019056;28;20308;-79
2022/03/05 05:03:10;;;;;;;4.83;2.00;;;-2.90;99.90;;;;;;5025692;28;20248;-80
2022/03/05 05:05:37;;;;;;;6.33;2.40;;;-2.90;99.90;;;;;;5030172;28;20234;-80
2022/03/05 05:08:05;;;;;;;4.33;2.50;;;-2.90;99.90;;;;;;5025554;28;20230;-77
2022/03/05 05:10:33;;;;;;;6.60;2.67;;;-2.90;99.90;;;;;;5025278;28;20240;-80
2022/03/05 05:13:00;;;;;;;6.50;2.57;;;-2.90;99.90;;;;;;5024744;28;20569;-79
2022/03/05 05:15:27;;;;;;;7.13;2.30;;;-3.00;99.90;;;;;;5025861;28;20229;-79
2022/03/05 05:17:53;;;;;;;5.43;2.43;;;-3.00;99.90;;;;;;5027856;28;20230;-79
2022/03/05 05:20:20;;;;;;;4.87;2.53;;;-3.00;99.90;;;;;;5022458;28;20232;-78
2022/03/05 05:22:47;;;;;;;5.83;2.60;;;-3.10;99.90;;;;;;5028096;28;20224;-81
2022/03/05 05:25:13;;;;;;;7.30;2.80;;;-3.10;99.90;;;;;;5026099;28;20852;-80
2022/03/05 05:27:41;;;;;;;6.07;2.53;;;-3.10;99.90;;;;;;5024054;28;20248;-80
2022/03/05 05:30:09;;;;;;;5.63;2.70;;;-3.10;99.90;;;;;;5023080;28;20335;-80
2022/03/05 05:32:36;;;;;;;5.70;2.67;;;-3.10;99.90;;;;;;5027138;28;20315;-81
2022/03/05 05:35:04;;;;;;;7.77;3.00;;;-3.10;99.90;;;;;;5025521;28;20326;-80
2022/03/05 05:37:31;;;;;;;5.93;2.90;;;-3.10;99.90;;;;;;5031249;28;20575;-80
2022/03/05 05:39:58;;;;;;;6.87;2.43;;;-3.10;99.90;;;;;;5024791;28;20283;-80
2022/03/05 05:42:25;;;;;;;6.27;2.53;;;-3.10;99.90;;;;;;5024655;28;20233;-80
2022/03/05 05:44:53;;;;;;;5.50;2.90;;;-3.20;99.90;;;;;;5026726;28;20229;-80
2022/03/05 05:47:20;;;;;;;6.70;3.30;;;-3.10;99.90;;;;;;5023931;28;20254;-80
2022/03/05 05:49:47;;;;;;;5.33;2.93;;;-3.10;99.90;;;;;;5025515;28;20304;-79
2022/03/05 05:52:14;;;;;;;6.57;2.63;;;-3.10;99.90;;;;;;5026222;28;20227;-79
2022/03/05 05:54:41;;;;;;;3.97;2.50;;;-3.10;99.90;;;;;;5021523;28;20339;-79
2022/03/05 05:57:07;;;;;;;5.53;2.70;;;-3.10;99.90;;;;;;5032266;28;20249;-79
2022/03/05 05:59:34;;;;;;;7.10;2.70;;;-3.10;99.90;;;;;;5032684;28;20837;-78
2022/03/05 06:02:03;;;;;;;4.50;2.53;;;-3.10;99.90;;;;;;5036509;28;20601;-80
2022/03/05 06:04:29;;;;;;;5.57;2.90;;;-3.00;99.90;;;;;;5010033;28;20226;-80
2022/03/05 06:06:56;;;;;;;7.30;3.00;;;-3.00;99.90;;;;;;5036788;28;21093;-81
2022/03/05 06:09:23;;;;;;;6.17;3.00;;;-2.90;99.90;;;;;;5000712;28;20232;-79
2022/03/05 06:11:50;;;;;;;8.20;3.60;;;-2.90;99.90;;;;;;5006243;28;20244;-80
2022/03/05 06:14:16;;;;;;;5.23;2.97;;;-2.80;99.90;;;;;;4999261;28;20243;-78
2022/03/05 06:16:43;;;;;;;6.37;3.13;;;-2.70;99.90;;;;;;5009817;28;20707;-79
2022/03/05 06:19:11;;;;;;;6.40;2.40;;;-2.60;99.90;;;;;;5003403;28;20227;-79
2022/03/05 06:21:38;;;;;;;3.83;2.80;;;-2.60;99.90;;;;;;5001904;28;20301;-79
2022/03/05 06:24:07;;;;;;;6.80;3.27;;;-2.50;99.90;;;;;;4988142;28;20243;-78
2022/03/05 06:26:34;;;;;;;5.83;2.93;;;-2.40;99.90;;;;;;4991993;28;20231;-82
2022/03/05 06:29:01;;;;;;;5.83;2.80;;;-2.30;99.90;;;;;;4993442;28;20223;-79
2022/03/05 06:31:27;;;;;;;6.07;2.60;;;-2.20;99.90;;;;;;5002204;28;20232;-79
2022/03/05 06:33:54;;;;;;;6.87;3.07;;;-2.10;99.90;;;;;;5012658;28;20315;-79
2022/03/05 06:36:22;;;;;;;5.63;2.60;;;-2.10;99.90;;;;;;5009043;28;20222;-78
2022/03/05 06:38:49;;;;;;;7.27;2.90;;;-2.00;99.90;;;;;;4995969;28;20232;-78
2022/03/05 06:41:16;;;;;;;5.60;2.63;;;-1.90;99.90;;;;;;5001749;28;20243;-80
2022/03/05 06:43:42;;;;;;;5.10;2.93;;;-1.90;99.90;;;;;;4996968;28;20235;-79
2022/03/05 06:46:09;;;;;;;5.03;2.77;;;-1.80;99.90;;;;;;4986573;28;20230;-81
2022/03/05 06:48:36;;;;;;;6.00;3.23;;;-1.80;99.90;;;;;;4990437;28;20229;-78
2022/03/05 06:51:03;;;;;;;6.93;3.53;;;-1.70;99.90;;;;;;4985233;28;20223;-79
2022/03/05 06:53:30;;;;;;;6.00;3.50;;;-1.70;99.90;;;;;;4982421;28;20289;-78
2022/03/05 06:55:57;;;;;;;5.97;3.70;;;-1.60;99.90;;;;;;5005659;28;20240;-79
2022/03/05 06:58:24;;;;;;;8.77;3.80;;;-1.50;99.90;;;;;;4995351;28;20243;-79
2022/03/05 07:00:51;;;;;;;7.73;3.73;;;-1.50;99.90;;;;;;5007657;28;20226;-78
2022/03/05 07:03:17;;;;;;;7.10;3.80;;;-1.40;99.90;;;;;;5012639;28;20260;-78
2022/03/05 07:05:44;;;;;;;7.73;3.53;;;-1.30;99.90;;;;;;5010938;28;20239;-78
2022/03/05 07:08:10;;;;;;;9.13;3.80;;;-1.20;99.90;;;;;;5025012;28;20236;-78
2022/03/05 07:10:38;;;;;;;7.93;3.63;;;-1.10;99.90;;;;;;5016575;28;20227;-79
2022/03/05 07:13:05;;;;;;;7.43;3.60;;;-1.00;99.90;;;;;;5020563;28;20244;-80
2022/03/05 07:15:32;;;;;;;8.60;3.60;;;-0.90;99.90;;;;;;5031945;28;20244;-81
2022/03/05 07:17:59;;;;;;;5.70;3.47;;;-0.80;99.90;;;;;;5024312;28;20391;-80
2022/03/05 07:20:25;;;;;;;4.73;2.90;;;-0.60;99.90;;;;;;5019496;28;20714;-79
2022/03/05 07:22:52;;;;;;;6.40;2.90;;;-0.40;99.90;;;;;;5020654;28;20233;-79
2022/03/05 07:25:19;;;;;;;11.07;3.40;;;-0.30;99.90;;;;;;5017031;28;20337;-78
2022/03/05 07:27:47;;;;;;;8.43;3.40;;;-0.10;99.90;;;;;;5009825;28;20229;-81
2022/03/05 07:30:13;;;;;;;8.80;3.47;;;0.10;99.90;;;;;;5027450;28;20241;-80
2022/03/05 07:32:40;;;;;;;7.67;4.47;;;0.30;99.90;;;;;;5024318;28;20595;-79
2022/03/05 07:35:08;;;;;;;6.73;4.70;;;0.60;99.90;;;;;;5034042;28;20795;-78
2022/03/05 07:37:35;;;;;;;7.17;4.40;;;0.80;99.90;;;;;;5018535;28;20718;-78
2022/03/05 07:40:02;;;;;;;7.90;3.97;;;1.00;99.90;;;;;;5024365;28;20229;-81
2022/03/05 07:42:29;;;;;;;9.60;4.43;;;1.20;99.90;;;;;;5025653;28;20306;-82
2022/03/05 07:44:57;;;;;;;6.50;3.30;;;1.30;99.90;;;;;;4989612;28;20231;-81
2022/03/05 07:47:24;;;;;;;6.70;3.30;;;1.50;99.90;;;;;;5007309;28;20354;-83
2022/03/05 07:49:51;;;;;;;7.70;3.30;;;1.70;99.90;;;;;;4985988;28;20603;-78
2022/03/05 07:52:17;;;;;;;7.97;3.23;;;1.90;99.90;;;;;;4991613;28;20226;-79
2022/03/05 07:54:44;;;;;;;6.37;3.70;;;2.10;99.90;;;;;;5000046;28;20230;-80
2022/03/05 07:57:11;;;;;;;6.37;4.47;;;2.40;99.90;;;;;;4989756;28;20231;-83
2022/03/05 07:59:37;;;;;;;6.90;4.50;;;2.50;99.90;;;;;;4998126;28;20231;-80
2022/03/05 08:02:06;;;;;;;11.40;4.07;;;2.60;99.90;;;;;;4998870;28;20325;-77
2022/03/05 08:04:32;;;;;;;7.00;3.83;;;2.80;99.90;;;;;;4995819;28;20234;-81
2022/03/05 08:06:59;;;;;;;7.77;3.40;;;3.10;99.80;;;;;;4999048;28;20298;-80
2022/03/05 08:09:26;;;;;;;7.10;3.60;;;3.20;99.20;;;;;;4996444;28;20309;-80
2022/03/05 08:11:53;;;;;;;10.10;3.70;;;3.30;99.30;;;;;;4982759;28;20245;-79
2022/03/05 08:14:19;;;;;;;8.07;3.50;;;3.50;99.70;;;;;;4996045;28;20247;-78
2022/03/05 08:16:46;;;;;;;13.20;3.90;;;3.60;99.60;;;;;;4998464;28;20238;-78
2022/03/05 08:19:14;;;;;;;6.03;3.23;;;3.80;99.30;;;;;;4997782;28;20234;-80
2022/03/05 08:21:40;;;;;;;12.90;3.90;;;3.90;99.00;;;;;;4980343;28;20236;-78
2022/03/05 08:24:07;;;;;;;5.60;3.20;;;4.00;99.10;;;;;;4986216;28;20230;-79
2022/03/05 08:26:34;;;;;;;6.10;3.50;;;4.10;99.00;;;;;;4993252;28;20242;-79
2022/03/05 08:29:00;;;;;;;6.63;3.53;;;4.20;98.60;;;;;;4998069;28;20266;-78
2022/03/05 08:31:27;;;;;;;6.23;3.90;;;4.20;98.40;;;;;;4995129;28;20253;-79
2022/03/05 08:33:54;;;;;;;7.53;5.10;;;4.20;98.50;;;;;;4976245;28;20608;-78
2022/03/05 08:36:22;;;;;;;11.17;6.50;;;4.30;98.30;;;;;;4995022;28;20570;-78
2022/03/05 08:38:49;;;;;;;6.13;3.90;;;4.40;98.40;;;;;;4980074;28;20326;-80
2022/03/05 08:41:15;;;;;;;6.80;4.17;;;4.50;98.70;;;;;;4992814;28;20312;-79
2022/03/05 08:43:42;;;;;;;5.87;3.30;;;4.80;99.00;;;;;;4987681;28;20297;-78
2022/03/05 08:46:09;;;;;;;9.33;4.43;;;5.10;98.80;;;;;;4989396;28;20290;-80
2022/03/05 08:48:36;;;;;;;5.43;3.33;;;5.30;97.40;;;;;;4990854;28;20239;-79
2022/03/05 08:51:03;;;;;;;5.93;3.73;;;5.60;97.40;;;;;;5002488;28;20985;-79
2022/03/05 08:53:31;;;;;;;6.50;3.50;;;5.80;97.80;;;;;;5020118;28;20789;-79
2022/03/05 08:55:58;;;;;;;8.00;3.93;;;6.10;97.50;;;;;;5000773;28;20683;-79
2022/03/05 08:58:25;;;;;;;7.13;3.80;;;6.50;97.60;;;;;;4987636;28;20266;-78
2022/03/05 09:00:52;;;;;;;6.50;3.93;;;6.90;97.50;;;;;;4995513;28;20699;-79
2022/03/05 09:03:19;;;;;;;7.50;3.90;;;7.40;97.40;;;;;;4974181;28;20232;-79
2022/03/05 09:05:46;;;;;;;6.43;3.90;;;7.90;96.50;;;;;;5005895;28;20992;-78
2022/03/05 09:08:13;;;;;;;6.23;4.00;;;8.40;96.20;;;;;;4998497;28;20236;-79
2022/03/05 09:10:41;;;;;;;6.77;4.40;;;8.80;93.70;;;;;;4981693;28;20273;-80
2022/03/05 09:13:08;;;;;;;7.97;4.13;;;9.10;93.80;;;;;;4989463;28;20243;-78
2022/03/05 09:15:35;;;;;;;7.67;4.23;;;9.30;93.80;;;;;;4999551;28;20227;-79
2022/03/05 09:18:02;;;;;;;6.57;4.30;;;9.50;92.90;;;;;;4996704;28;20231;-79
2022/03/05 09:20:29;;;;;;;7.47;4.30;;;9.70;92.60;;;;;;4978068;28;20240;-79
2022/03/05 09:22:55;;;;;;;5.83;3.60;;;9.90;91.20;;;;;;4987690;28;20242;-79
2022/03/05 09:25:23;;;;;;;6.10;3.93;;;9.90;92.10;;;;;;4993699;28;20240;-80
2022/03/05 09:27:53;;;;;;;9.00;4.13;;;10.10;92.40;;;;;;4975330;28;20242;-81
2022/03/05 09:30:21;;;;;;;7.77;4.30;;;10.20;92.40;;;;;;4991410;28;20231;-79
2022/03/05 09:32:48;;;;;;;7.50;4.10;;;10.50;92.60;;;;;;4996240;28;20240;-79
2022/03/05 09:35:15;;;;;;;6.20;4.20;;;10.80;92.60;;;;;;5003955;28;20229;-80
2022/03/05 09:37:41;;;;;;;7.03;3.90;;;11.20;92.40;;;;;;4993078;28;20239;-79
2022/03/05 09:40:10;;;;;;;8.13;4.50;;;11.50;91.70;;;;;;4994386;28;20245;-79
2022/03/05 09:42:41;;;;;;;6.07;4.00;;;11.80;91.40;;;;;;4992384;28;20368;-79
2022/03/05 09:45:11;;;;;;;7.90;4.23;;;12.10;90.50;;;;;;4976591;28;20233;-80
2022/03/05 09:47:38;;;;;;;7.53;4.30;;;12.40;88.60;;;;;;4998042;28;20233;-80
2022/03/05 09:50:07;;;;;;;5.77;4.03;;;12.70;90.60;;;;;;4997602;28;20230;-80
2022/03/05 09:52:34;;;;;;;7.10;3.83;;;13.00;90.00;;;;;;4996649;28;20227;-80
2022/03/05 09:55:00;;;;;;;8.77;4.17;;;13.20;88.90;;;;;;4996798;28;20255;-79
2022/03/05 09:57:28;;;;;;;6.23;3.50;;;13.40;87.40;;;;;;4995962;28;20226;-81
2022/03/05 09:59:55;;;;;;;6.57;3.87;;;13.50;85.60;;;;;;4991988;28;20227;-80
2022/03/05 10:02:23;;;;;;;7.37;4.13;;;13.70;83.10;;;;;;4996794;28;20230;-78
2022/03/05 10:04:50;;;;;;;8.03;3.80;;;13.70;79.80;;;;;;4994037;28;20719;-78
2022/03/05 10:07:18;;;;;;;6.83;4.23;;;13.60;80.40;;;;;;4996730;28;20898;-79
2022/03/05 10:09:46;;;;;;;7.37;3.70;;;13.60;80.10;;;;;;5003530;28;20226;-78
2022/03/05 10:12:30;;;;;;;8.23;4.03;;;13.60;77.90;;;;;;5002711;28;20243;-79
2022/03/05 10:15:12;;;;;;;6.40;3.53;;;13.50;77.30;;;;;;4983540;28;20236;-79
2022/03/05 10:17:57;;;;;;;6.10;3.70;;;13.40;72.80;;;;;;4995908;28;21075;-78
2022/03/05 10:20:26;;;;;;;4.97;2.80;;;13.30;71.20;;;;;;5014238;28;20342;-79
2022/03/05 10:23:00;;;;;;;6.33;3.03;;;13.10;71.20;;;;;;5000391;28;20312;-79
2022/03/05 10:25:32;;;;;;;6.87;2.70;;;12.80;72.30;;;;;;5016431;28;20232;-79
2022/03/05 10:28:05;;;;;;;5.73;2.60;;;12.60;72.60;;;;;;4995634;28;21143;-78
2022/03/05 10:30:33;;;;;;;3.80;2.40;;;12.40;72.20;;;;;;5012805;28;20246;-78
2022/03/05 10:33:02;;;;;;;5.07;2.90;;;12.10;73.10;;;;;;5023465;28;20216;-79
2022/03/05 10:35:29;;;;;;;5.10;2.97;;;11.80;70.70;;;;;;5022213;28;20246;-79
2022/03/05 10:37:55;;;;;;;5.33;2.90;;;11.50;73.00;;;;;;5029395;28;20334;-79
2022/03/05 10:40:27;;;;;;;6.37;3.40;;;11.30;75.20;;;;;;5028885;28;20221;-79
2022/03/05 10:42:53;;;;;;;3.83;2.77;;;11.20;76.60;;;;;;5030449;28;20569;-78
2022/03/05 10:45:22;;;;;;;5.23;2.80;;;11.20;76.10;;;;;;5022330;28;20229;-78
2022/03/05 10:47:49;;;;;;;4.97;2.67;;;11.30;77.00;;;;;;5025838;28;20229;-78
2022/03/05 10:50:25;;;;;;;4.60;2.80;;;11.50;77.00;;;;;;5013878;28;20232;-79
2022/03/05 10:52:54;;;;;;;4.60;2.80;;;11.70;76.80;;;;;;5028119;28;20308;-80
2022/03/05 10:55:23;;;;;;;3.80;1.83;;;12.00;76.30;;;;;;5024604;28;20217;-80
2022/03/05 10:58:00;;;;;;;4.90;2.87;;;12.10;69.70;;;;;;5015086;28;20254;-78
2022/03/05 11:00:28;;;;;;;4.37;2.23;;;12.20;72.30;;;;;;5022881;28;20233;-78
2022/03/05 11:02:57;;;;;;;4.90;2.70;;;12.20;69.70;;;;;;5025454;28;20734;-78
2022/03/05 11:05:26;;;;;;;5.60;2.87;;;12.20;69.50;;;;;;5027923;28;20310;-78
2022/03/05 11:07:55;;;;;;;4.63;2.80;;;12.20;72.60;;;;;;5035094;28;20220;-78
2022/03/05 11:10:25;;;;;;;5.63;3.00;;;12.30;72.50;;;;;;5038042;28;20244;-78
2022/03/05 11:12:56;;;;;;;5.03;3.07;;;12.50;71.00;;;;;;5022662;28;20869;-78
2022/03/05 11:15:23;;;;;;;8.23;3.60;;;12.60;69.70;;;;;;5023482;28;20225;-78
2022/03/05 11:17:50;;;;;;;6.00;3.33;;;12.70;71.50;;;;;;5043900;28;20249;-78
2022/03/05 11:20:17;;;;;;;5.77;3.60;;;12.80;70.40;;;;;;5022504;28;20222;-78
2022/03/05 11:22:49;;;;;;;5.77;3.30;;;12.90;72.30;;;;;;5022852;28;20236;-77
2022/03/05 11:25:18;;;;;;;4.30;3.37;;;13.20;71.30;;;;;;5017924;28;20296;-77
2022/03/05 11:27:59;;;;;;;5.30;3.40;;;13.40;71.30;;;;;;5012332;28;20294;-76
2022/03/05 11:30:27;;;;;;;4.57;3.03;;;13.60;69.40;;;;;;5013878;28;20228;-77
2022/03/05 11:32:54;;;;;;;4.80;3.20;;;13.70;70.30;;;;;;5010926;28;20226;-77
2022/03/05 11:35:23;;;;;;;5.13;3.00;;;13.80;70.20;;;;;;5019022;28;20223;-79
2022/03/05 11:37:52;;;;;;;4.70;3.20;;;13.80;68.60;;;;;;5025176;28;20263;-80
2022/03/05 11:40:40;;;;;;;3.83;3.00;;;13.70;66.50;;;;;;5022485;28;20397;-77
2022/03/05 11:43:18;;;;;;;5.70;3.33;;;13.60;67.90;;;;;;5002672;28;20286;-77
2022/03/05 11:45:56;;;;;;;5.73;3.90;;;13.40;67.80;;;;;;5016485;28;20230;-77
2022/03/05 11:48:30;;;;;;;6.10;4.10;;;13.20;66.10;;;;;;5018062;28;20339;-77
2022/03/05 11:50:58;;;;;;;6.00;4.03;;;12.80;66.20;;;;;;5021981;28;20237;-77
2022/03/05 11:53:26;;;;;;;4.90;3.70;;;12.50;66.70;;;;;;5014456;28;20258;-76
2022/03/05 11:55:54;;;;;;;5.37;3.90;;;12.20;68.10;;;;;;5022482;28;20224;-77
2022/03/05 11:58:35;;;;;;;6.00;3.67;;;12.10;69.80;;;;;;5014971;28;20226;-77
2022/03/05 12:01:38;;;;;;;4.53;4.03;;;12.00;69.70;;;;;;5022576;28;20224;-76
2022/03/05 12:04:27;;;;;;;4.30;3.60;;;12.10;68.90;;;;;;5011922;28;20793;-77
2022/03/05 12:07:01;;;;;;;5.73;4.43;;;12.30;65.90;;;;;;5021131;28;20261;-76
2022/03/05 12:09:38;;;;;;;6.70;4.60;;;12.50;68.10;;;;;;5018427;28;20300;-78
2022/03/05 12:12:07;;;;;;;5.87;4.37;;;12.70;66.40;;;;;;5024053;28;20235;-77
2022/03/05 12:15:11;;;;;;;6.60;4.40;;;12.70;64.90;;;;;;5013038;28;20237;-81
2022/03/05 12:17:41;;;;;;;7.03;4.77;;;12.70;62.90;;;;;;5023117;28;20233;-83
2022/03/05 12:20:10;;;;;;;7.90;4.40;;;12.60;65.70;;;;;;5023943;28;20224;-83
2022/03/05 12:22:45;;;;;;;6.53;4.50;;;12.60;66.60;;;;;;5003675;28;20235;-83
2022/03/05 12:25:14;;;;;;;5.20;3.70;;;12.70;67.70;;;;;;5028176;28;20231;-80
2022/03/05 12:27:47;;;;;;;5.03;3.90;;;12.90;67.80;;;;;;5027446;28;20814;-83
2022/03/05 12:30:15;;;;;;;5.70;3.53;;;13.10;67.20;;;;;;5005537;28;20317;-80
2022/03/05 12:32:45;;;;;;;4.40;3.87;;;13.40;65.60;;;;;;5023473;28;20231;-81
2022/03/05 12:35:12;;;;;;;5.13;3.60;;;13.60;65.10;;;;;;5023096;28;20289;-79
2022/03/05 12:37:39;;;;;;;5.30;4.10;;;13.80;64.80;;;;;;5020358;28;20316;-83
2022/03/05 12:40:07;;;;;;;6.73;4.33;;;13.90;64.30;;;;;;5028709;28;20239;-79
2022/03/05 12:42:44;;;;;;;5.50;3.97;;;14.00;64.40;;;;;;4998739;28;20278;-79
2022/03/05 12:45:20;;;;;;;5.63;4.30;;;14.10;61.00;;;;;;4999609;28;20229;-78
2022/03/05 12:47:47;;;;;;;5.33;4.00;;;14.30;61.50;;;;;;5022451;28;20876;-79
2022/03/05 12:50:27;;;;;;;5.23;4.03;;;14.30;61.40;;;;;;4984778;28;20237;-81
2022/03/05 12:53:00;;;;;;;5.97;4.73;;;14.20;60.20;;;;;;5000000;28;20218;-83